createdAt,value
2018-04-26T00:01:50.484Z,99.90
2018-04-26T00:04:19.758Z,99.90
2018-04-26T00:06:49.122Z,99.90
2018-04-26T00:09:18.365Z,99.90
2018-04-26T00:11:47.695Z,99.90
2018-04-26T00:14:16.891Z,99.90
2018-04-26T00:16:46.206Z,99.90
2018-04-26T00:19:16.222Z,99.90
2018-04-26T00:21:46.221Z,99.90
2018-04-26T00:24:15.551Z,99.90
2018-04-26T00:26:45.954Z,99.90
2018-04-26T00:29:16.013Z,99.90
2018-04-26T00:31:45.389Z,99.90
2018-04-26T00:34:15.394Z,99.90
2018-04-26T00:36:44.647Z,99.90
2018-04-26T00:39:13.895Z,99.90
2018-04-26T00:41:43.969Z,99.90
2018-04-26T00:44:13.219Z,99.90
2018-04-26T00:46:43.226Z,99.90
2018-04-26T00:49:13.254Z,99.90
2018-04-26T00:52:01.006Z,99.90
2018-04-26T00:54:30.262Z,99.90
2018-04-26T00:56:59.502Z,99.90
2018-04-26T00:59:28.756Z,99.90
2018-04-26T01:01:58.013Z,99.90
2018-04-26T01:04:27.252Z,99.90
2018-04-26T01:06:56.511Z,99.90
2018-04-26T01:09:25.767Z,99.90
2018-04-26T01:11:56.514Z,99.90
2018-04-26T01:14:26.524Z,99.90
2018-04-26T01:16:56.542Z,99.90
2018-04-26T01:19:26.561Z,99.90
2018-04-26T01:21:56.580Z,99.90
2018-04-26T01:24:26.585Z,99.90
2018-04-26T01:26:55.845Z,99.90
2018-04-26T01:29:25.097Z,98.60
2018-04-26T01:31:55.112Z,98.90
2018-04-26T01:34:25.125Z,99.60
2018-04-26T01:37:12.697Z,99.70
2018-04-26T01:39:41.963Z,99.70
2018-04-26T01:42:11.196Z,99.20
2018-04-26T01:44:40.453Z,99.60
2018-04-26T01:47:10.463Z,99.50
2018-04-26T01:49:39.710Z,99.50
2018-04-26T01:52:08.956Z,99.80
2018-04-26T01:54:38.209Z,99.60
2018-04-26T01:57:07.466Z,99.00
2018-04-26T01:59:36.709Z,99.60
2018-04-26T02:02:05.956Z,99.90
2018-04-26T02:04:35.210Z,99.90
2018-04-26T02:07:05.434Z,99.90
2018-04-26T02:09:34.677Z,99.90
2018-04-26T02:12:03.924Z,99.90
2018-04-26T02:14:33.178Z,99.90
2018-04-26T02:17:02.410Z,99.90
2018-04-26T02:19:31.676Z,99.90
2018-04-26T02:22:00.927Z,99.90
2018-04-26T02:24:30.178Z,99.90
2018-04-26T02:27:00.196Z,99.90
2018-04-26T02:29:29.468Z,99.90
2018-04-26T02:31:58.728Z,99.90
2018-04-26T02:34:27.991Z,99.90
2018-04-26T02:36:57.244Z,99.90
2018-04-26T02:39:26.488Z,99.90
2018-04-26T02:41:55.774Z,99.90
2018-04-26T02:44:25.069Z,99.90
2018-04-26T02:46:54.325Z,99.90
2018-04-26T02:49:23.591Z,99.90
2018-04-26T02:51:52.869Z,99.90
2018-04-26T02:54:22.107Z,99.90
2018-04-26T02:56:52.123Z,99.90
2018-04-26T02:59:22.139Z,99.90
2018-04-26T03:01:52.149Z,99.90
2018-04-26T03:04:22.165Z,99.90
2018-04-26T03:06:52.192Z,99.90
2018-04-26T03:09:22.191Z,99.90
2018-04-26T03:11:51.434Z,99.90
2018-04-26T03:14:20.678Z,99.90
2018-04-26T03:16:49.961Z,99.90
2018-04-26T03:19:19.331Z,99.90
2018-04-26T03:21:48.566Z,99.90
2018-04-26T03:24:17.839Z,99.90
2018-04-26T03:26:47.094Z,99.90
2018-04-26T03:29:16.355Z,99.90
2018-04-26T03:31:45.626Z,99.90
2018-04-26T03:34:14.963Z,99.90
2018-04-26T03:36:44.214Z,99.90
2018-04-26T03:39:14.220Z,99.90
2018-04-26T03:41:44.256Z,99.90
2018-04-26T03:44:13.505Z,99.90
2018-04-26T03:46:42.799Z,99.90
2018-04-26T03:49:12.040Z,99.90
2018-04-26T03:51:42.053Z,99.90
2018-04-26T03:54:12.078Z,99.90
2018-04-26T03:56:42.081Z,99.90
2018-04-26T03:59:12.088Z,99.90
2018-04-26T04:01:59.170Z,99.90
2018-04-26T04:04:46.263Z,99.90
2018-04-26T04:07:15.532Z,99.90
2018-04-26T04:09:44.772Z,99.90
2018-04-26T04:12:14.084Z,99.90
2018-04-26T04:14:43.347Z,99.90
2018-04-26T04:17:12.631Z,99.90
2018-04-26T04:19:42.745Z,99.90
2018-04-26T04:22:12.021Z,99.90
2018-04-26T04:24:41.277Z,99.90
2018-04-26T04:27:10.592Z,99.90
2018-04-26T04:29:39.847Z,99.90
2018-04-26T04:32:09.888Z,99.90
2018-04-26T04:34:39.980Z,99.90
2018-04-26T04:37:09.288Z,99.90
2018-04-26T04:39:39.302Z,99.90
2018-04-26T04:42:09.515Z,99.90
2018-04-26T04:44:38.811Z,99.90
2018-04-26T04:47:08.074Z,99.90
2018-04-26T04:49:37.332Z,99.90
2018-04-26T04:52:07.433Z,99.90
2018-04-26T04:54:36.676Z,99.90
2018-04-26T04:57:05.947Z,99.90
2018-04-26T04:59:36.044Z,99.90
2018-04-26T05:02:06.300Z,99.90
2018-04-26T05:04:35.526Z,99.90
2018-04-26T05:07:04.773Z,99.90
2018-04-26T05:09:34.368Z,99.90
2018-04-26T05:12:03.608Z,99.90
2018-04-26T05:14:32.869Z,99.90
2018-04-26T05:17:03.623Z,99.90
2018-04-26T05:19:33.677Z,99.90
2018-04-26T05:22:02.963Z,99.90
2018-04-26T05:24:32.178Z,99.90
2018-04-26T05:27:01.453Z,99.90
2018-04-26T05:29:31.477Z,99.90
2018-04-26T05:32:01.475Z,99.90
2018-04-26T05:34:30.742Z,99.90
2018-04-26T05:37:00.045Z,99.90
2018-04-26T05:39:29.312Z,99.90
2018-04-26T05:41:58.557Z,99.90
2018-04-26T05:44:27.814Z,99.90
2018-04-26T05:46:57.102Z,99.90
2018-04-26T05:49:26.353Z,99.80
2018-04-26T05:51:57.133Z,99.70
2018-04-26T05:54:26.469Z,99.70
2018-04-26T05:56:55.735Z,99.40
2018-04-26T05:59:25.019Z,95.80
2018-04-26T06:01:55.031Z,88.10
2018-04-26T06:04:25.158Z,80.40
2018-04-26T06:06:55.214Z,72.80
2018-04-26T06:09:24.463Z,72.70
2018-04-26T06:11:54.517Z,61.30
2018-04-26T06:14:23.840Z,61.20
2018-04-26T06:16:53.190Z,56.60
2018-04-26T06:19:28.332Z,51.90
2018-04-26T06:21:57.597Z,51.90
2018-04-26T06:24:26.882Z,51.40
2018-04-26T06:26:56.199Z,49.10
2018-04-26T06:29:26.013Z,46.40
2018-04-26T06:31:56.807Z,44.70
2018-04-26T06:34:26.929Z,45.90
2018-04-26T06:36:56.292Z,45.80
2018-04-26T06:39:25.499Z,44.80
2018-04-26T06:41:54.800Z,44.00
2018-04-26T06:44:24.815Z,42.00
2018-04-26T06:46:54.086Z,42.00
2018-04-26T06:49:23.360Z,42.80
2018-04-26T06:51:52.651Z,40.30
2018-04-26T06:54:21.901Z,41.90
2018-04-26T06:56:51.941Z,41.90
2018-04-26T06:59:21.454Z,41.80
2018-04-26T07:01:50.736Z,40.80
2018-04-26T07:04:20.757Z,46.80
2018-04-26T07:06:50.097Z,46.70
2018-04-26T07:09:19.378Z,49.00
2018-04-26T07:11:48.690Z,49.80
2018-04-26T07:14:17.975Z,48.00
2018-04-26T07:16:47.230Z,46.60
2018-04-26T07:19:16.516Z,45.50
2018-04-26T07:21:45.866Z,46.80
2018-04-26T07:24:15.071Z,45.80
2018-04-26T07:26:44.345Z,43.90
2018-04-26T07:29:13.598Z,45.90
2018-04-26T07:31:42.882Z,45.50
2018-04-26T07:34:12.198Z,46.80
2018-04-26T07:36:41.444Z,46.30
2018-04-26T07:39:10.713Z,48.20
2018-04-26T07:41:39.982Z,48.30
2018-04-26T07:44:09.245Z,44.40
2018-04-26T07:46:38.517Z,42.20
2018-04-26T07:49:07.804Z,40.70
2018-04-26T07:51:37.084Z,40.20
2018-04-26T07:54:06.338Z,42.40
2018-04-26T07:56:35.597Z,44.40
2018-04-26T07:59:04.908Z,46.60
2018-04-26T08:01:34.217Z,44.80
2018-04-26T08:04:03.483Z,42.10
2018-04-26T08:06:32.801Z,41.90
2018-04-26T08:09:02.057Z,41.50
2018-04-26T08:11:31.355Z,42.40
2018-04-26T08:14:01.586Z,44.90
2018-04-26T08:16:30.928Z,44.90
2018-04-26T08:19:00.223Z,44.60
2018-04-26T08:21:29.500Z,45.80
2018-04-26T08:23:58.825Z,46.10
2018-04-26T08:26:28.199Z,46.80
2018-04-26T08:28:57.473Z,45.80
2018-04-26T08:31:27.517Z,42.20
2018-04-26T08:33:56.772Z,42.80
2018-04-26T08:36:26.803Z,41.10
2018-04-26T08:38:56.834Z,39.30
2018-04-26T08:41:26.860Z,40.10
2018-04-26T08:43:56.145Z,40.10
2018-04-26T08:46:26.182Z,36.40
2018-04-26T08:48:55.491Z,36.30
2018-04-26T08:51:24.789Z,35.30
2018-04-26T08:53:54.062Z,36.60
2018-04-26T08:56:24.089Z,34.40
2018-04-26T08:58:53.513Z,34.40
2018-04-26T09:01:22.766Z,36.10
2018-04-26T09:03:52.817Z,41.10
2018-04-26T09:06:22.090Z,41.00
2018-04-26T09:08:51.422Z,42.80
2018-04-26T09:11:20.659Z,39.50
2018-04-26T09:13:49.909Z,38.70
2018-04-26T09:16:19.201Z,39.00
2018-04-26T09:18:48.490Z,39.40
2018-04-26T09:21:18.525Z,40.20
2018-04-26T09:23:48.559Z,39.90
2018-04-26T09:26:17.933Z,39.80
2018-04-26T09:28:47.194Z,36.60
2018-04-26T09:31:16.465Z,34.30
2018-04-26T09:33:45.782Z,34.20
2018-04-26T09:36:15.063Z,36.10
2018-04-26T09:38:44.389Z,37.60
2018-04-26T09:41:17.653Z,38.50
2018-04-26T09:43:46.915Z,40.40
2018-04-26T09:46:16.189Z,39.90
2018-04-26T09:48:45.490Z,38.70
2018-04-26T09:51:14.745Z,35.30
2018-04-26T09:53:44.010Z,35.80
2018-04-26T09:56:13.315Z,36.30
2018-04-26T09:58:43.359Z,34.20
2018-04-26T10:01:12.642Z,34.60
2018-04-26T10:03:42.660Z,35.70
2018-04-26T10:06:27.080Z,34.60
2018-04-26T10:08:56.340Z,34.60
2018-04-26T10:11:25.602Z,36.80
2018-04-26T10:13:55.648Z,36.50
2018-04-26T10:16:24.965Z,36.40
2018-04-26T10:18:54.219Z,37.50
2018-04-26T10:21:23.490Z,39.70
2018-04-26T10:23:52.761Z,42.10
2018-04-26T10:26:22.021Z,41.60
2018-04-26T10:28:52.055Z,42.90
2018-04-26T10:31:22.079Z,39.00
2018-04-26T10:33:51.355Z,38.40
2018-04-26T10:36:20.647Z,36.90
2018-04-26T10:38:49.923Z,38.20
2018-04-26T10:41:19.171Z,38.30
2018-04-26T10:43:48.454Z,34.50
2018-04-26T10:46:18.499Z,31.50
2018-04-26T10:48:47.769Z,31.50
2018-04-26T10:51:17.056Z,32.30
2018-04-26T10:53:46.310Z,35.50
2018-04-26T10:56:15.577Z,36.70
2018-04-26T10:58:45.607Z,35.60
2018-04-26T11:01:15.685Z,33.80
2018-04-26T11:03:44.961Z,33.80
2018-04-26T11:06:14.216Z,33.60
2018-04-26T11:08:44.306Z,32.90
2018-04-26T11:11:13.670Z,32.90
2018-04-26T11:13:42.948Z,34.80
2018-04-26T11:16:12.978Z,38.30
2018-04-26T11:18:42.245Z,38.40
2018-04-26T11:21:11.506Z,35.90
2018-04-26T11:23:40.780Z,34.60
2018-04-26T11:26:10.894Z,35.30
2018-04-26T11:28:40.166Z,35.30
2018-04-26T11:31:09.582Z,36.90
2018-04-26T11:33:38.702Z,40.90
2018-04-26T11:36:07.994Z,40.20
2018-04-26T11:38:38.027Z,40.50
2018-04-26T11:41:07.288Z,40.40
2018-04-26T11:43:36.584Z,38.40
2018-04-26T11:46:06.610Z,37.20
2018-04-26T11:48:36.640Z,37.80
2018-04-26T11:51:05.942Z,37.80
2018-04-26T11:53:35.248Z,39.90
2018-04-26T11:56:05.265Z,43.30
2018-04-26T11:58:34.571Z,43.20
2018-04-26T12:01:03.829Z,37.90
2018-04-26T12:03:33.848Z,39.20
2018-04-26T12:06:03.160Z,38.90
2018-04-26T12:08:33.193Z,39.00
2018-04-26T12:11:03.206Z,40.30
2018-04-26T12:13:33.308Z,41.00
2018-04-26T12:16:02.631Z,40.90
2018-04-26T12:18:32.665Z,40.30
2018-04-26T12:21:02.772Z,40.90
2018-04-26T12:23:32.055Z,40.80
2018-04-26T12:26:02.103Z,40.80
2018-04-26T12:28:31.357Z,40.70
2018-04-26T12:31:01.390Z,40.00
2018-04-26T12:33:31.427Z,40.10
2018-04-26T12:36:00.749Z,40.00
2018-04-26T12:38:30.033Z,41.70
2018-04-26T12:40:59.321Z,42.60
2018-04-26T12:43:29.372Z,41.80
2018-04-26T12:45:58.687Z,41.80
2018-04-26T12:48:27.994Z,40.40
2018-04-26T12:50:57.247Z,40.20
2018-04-26T12:53:27.289Z,40.30
2018-04-26T12:55:56.566Z,40.30
2018-04-26T12:58:26.595Z,40.20
2018-04-26T13:00:55.886Z,40.20
2018-04-26T13:03:25.147Z,41.40
2018-04-26T13:05:56.013Z,39.90
2018-04-26T13:08:26.039Z,39.80
2018-04-26T13:10:55.326Z,39.80
2018-04-26T13:13:25.365Z,41.70
2018-04-26T13:15:54.606Z,41.70
2018-04-26T13:18:24.072Z,41.80
2018-04-26T13:20:53.353Z,40.60
2018-04-26T13:23:23.532Z,38.00
2018-04-26T13:25:52.701Z,38.00
2018-04-26T13:28:21.942Z,37.30
2018-04-26T13:30:51.210Z,38.70
2018-04-26T13:33:20.474Z,38.00
2018-04-26T13:35:49.761Z,38.00
2018-04-26T13:38:19.788Z,39.40
2018-04-26T13:40:49.103Z,39.40
2018-04-26T13:43:18.380Z,39.10
2018-04-26T13:45:47.698Z,39.00
2018-04-26T13:48:16.974Z,39.50
2018-04-26T13:50:46.328Z,41.00
2018-04-26T13:53:15.610Z,40.20
2018-04-26T13:55:44.871Z,42.20
2018-04-26T13:58:14.923Z,38.50
2018-04-26T14:00:44.199Z,38.50
2018-04-26T14:03:14.237Z,39.90
2018-04-26T14:05:43.515Z,39.90
2018-04-26T14:08:13.553Z,38.30
2018-04-26T14:10:42.838Z,38.20
2018-04-26T14:13:12.859Z,37.50
2018-04-26T14:15:42.135Z,37.40
2018-04-26T14:18:12.171Z,37.80
2018-04-26T14:20:42.188Z,38.60
2018-04-26T14:23:12.271Z,38.30
2018-04-26T14:25:43.041Z,38.30
2018-04-26T14:28:13.079Z,38.30
2018-04-26T14:30:42.470Z,38.30
2018-04-26T14:33:13.208Z,40.20
2018-04-26T14:35:42.625Z,40.20
2018-04-26T14:38:11.878Z,39.40
2018-04-26T14:40:41.193Z,39.80
2018-04-26T14:43:11.305Z,39.10
2018-04-26T14:45:40.490Z,39.10
2018-04-26T14:48:09.753Z,40.50
2018-04-26T14:50:39.021Z,38.60
2018-04-26T14:53:08.318Z,37.60
2018-04-26T14:55:38.035Z,36.50
2018-04-26T14:58:07.306Z,36.60
2018-04-26T15:00:36.581Z,37.80
2018-04-26T15:03:05.911Z,37.70
2018-04-26T15:05:36.065Z,39.20
2018-04-26T15:08:05.365Z,38.10
2018-04-26T15:10:34.654Z,37.70
2018-04-26T15:13:03.949Z,39.40
2018-04-26T15:15:33.980Z,38.10
2018-04-26T15:18:03.315Z,38.00
2018-04-26T15:20:32.577Z,38.20
2018-04-26T15:23:04.234Z,37.40
2018-04-26T15:25:33.548Z,38.00
2018-04-26T15:28:02.905Z,39.90
2018-04-26T15:30:33.699Z,37.90
2018-04-26T15:33:02.959Z,38.50
2018-04-26T15:35:33.212Z,36.10
2018-04-26T15:38:02.481Z,36.00
2018-04-26T15:40:32.516Z,35.60
2018-04-26T15:43:01.810Z,35.50
2018-04-26T15:45:31.857Z,36.70
2018-04-26T15:48:01.118Z,36.70
2018-04-26T15:50:52.059Z,36.80
2018-04-26T15:53:39.156Z,37.00
2018-04-26T15:56:28.981Z,37.10
2018-04-26T15:59:16.034Z,36.20
2018-04-26T16:05:34.577Z,35.00
2018-04-26T16:08:27.463Z,35.00
2018-04-26T16:11:22.849Z,36.10
2018-04-26T16:14:06.191Z,36.10
2018-04-26T16:20:13.092Z,37.30
2018-04-26T16:23:06.002Z,39.10
2018-04-26T16:25:52.815Z,37.30
2018-04-26T16:28:45.167Z,38.30
2018-04-26T16:31:37.671Z,37.90
2018-04-26T16:34:24.620Z,38.60
2018-04-26T16:37:11.492Z,38.20
2018-04-26T16:39:40.741Z,37.10
2018-04-26T16:42:10.186Z,37.50
2018-04-26T16:44:40.223Z,38.70
2018-04-26T16:47:13.405Z,38.70
2018-04-26T16:49:42.689Z,38.90
2018-04-26T16:52:12.733Z,39.80
2018-04-26T16:54:42.000Z,39.80
2018-04-26T16:57:12.027Z,40.90
2018-04-26T16:59:42.089Z,40.90
2018-04-26T17:02:15.704Z,40.90
2018-04-26T17:04:45.777Z,41.80
2018-04-26T17:07:15.012Z,42.70
2018-04-26T17:09:44.339Z,42.40
2018-04-26T17:12:13.682Z,42.00
2018-04-26T17:14:43.700Z,43.60
2018-04-26T17:17:13.131Z,43.60
2018-04-26T17:19:42.413Z,44.20
2018-04-26T17:22:11.725Z,43.20
2018-04-26T17:24:42.053Z,45.20
2018-04-26T17:27:11.329Z,43.70
2018-04-26T17:29:40.610Z,43.80
2018-04-26T17:32:10.648Z,43.90
2018-04-26T17:34:40.906Z,43.50
2018-04-26T17:37:10.221Z,43.40
2018-04-26T17:39:39.507Z,44.00
2018-04-26T17:42:08.774Z,43.50
2018-04-26T17:44:38.069Z,43.50
2018-04-26T17:47:08.098Z,44.40
2018-04-26T17:49:37.342Z,44.40
2018-04-26T17:52:06.610Z,45.10
2018-04-26T17:54:35.920Z,44.50
2018-04-26T17:57:05.202Z,44.70
2018-04-26T17:59:34.482Z,45.00
2018-04-26T18:02:05.338Z,46.10
2018-04-26T18:04:35.411Z,46.10
2018-04-26T18:07:05.505Z,46.60
2018-04-26T18:09:34.786Z,46.60
2018-04-26T18:12:04.097Z,47.90
2018-04-26T18:14:33.394Z,47.10
2018-04-26T18:17:03.515Z,47.00
2018-04-26T18:19:32.785Z,47.70
2018-04-26T18:22:03.000Z,50.10
2018-04-26T18:24:33.036Z,50.40
2018-04-26T18:27:02.282Z,50.50
2018-04-26T18:29:31.585Z,48.80
2018-04-26T18:32:00.922Z,51.80
2018-04-26T18:34:30.155Z,54.00
2018-04-26T18:36:59.422Z,54.80
2018-04-26T18:39:28.716Z,55.80
2018-04-26T18:41:58.024Z,57.70
2018-04-26T18:44:27.397Z,58.70
2018-04-26T18:46:59.043Z,59.50
2018-04-26T18:49:28.347Z,61.60
2018-04-26T18:51:57.616Z,63.70
2018-04-26T18:54:26.894Z,63.70
2018-04-26T18:56:56.167Z,65.60
2018-04-26T18:59:26.454Z,68.70
2018-04-26T19:01:55.821Z,68.70
2018-04-26T19:04:25.078Z,69.20
2018-04-26T19:06:54.348Z,70.80
2018-04-26T19:09:23.740Z,72.00
2018-04-26T19:11:53.021Z,72.90
2018-04-26T19:14:23.128Z,75.50
2018-04-26T19:16:52.423Z,75.60
2018-04-26T19:19:22.433Z,77.70
2018-04-26T19:21:52.452Z,78.50
2018-04-26T19:24:22.679Z,79.10
2018-04-26T19:26:52.689Z,81.10
2018-04-26T19:29:23.390Z,81.40
2018-04-26T19:31:53.683Z,82.30
2018-04-26T19:34:22.962Z,82.30
2018-04-26T19:36:55.921Z,83.20
2018-04-26T19:39:25.281Z,84.60
2018-04-26T19:41:54.511Z,85.80
2018-04-26T19:44:24.000Z,87.30
2018-04-26T19:46:53.243Z,87.70
2018-04-26T19:49:23.557Z,90.00
2018-04-26T19:51:52.781Z,90.00
2018-04-26T19:54:22.796Z,90.90
2018-04-26T19:56:52.175Z,90.80
2018-04-26T19:59:22.225Z,91.40
2018-04-26T20:01:51.674Z,91.40
2018-04-26T20:04:21.197Z,91.50
2018-04-26T20:06:50.558Z,92.00
2018-04-26T20:09:20.130Z,92.20
2018-04-26T20:11:50.166Z,93.10
2018-04-26T20:14:19.501Z,92.80
2018-04-26T20:16:48.764Z,93.10
2018-04-26T20:19:18.139Z,93.10
2018-04-26T20:21:48.176Z,93.70
2018-04-26T20:24:17.498Z,93.70
2018-04-26T20:26:46.819Z,93.90
2018-04-26T20:29:16.058Z,94.00
2018-04-26T20:31:46.319Z,94.20
2018-04-26T20:34:15.598Z,94.20
2018-04-26T20:36:45.412Z,94.60
2018-04-26T20:39:15.414Z,95.20
2018-04-26T20:41:56.404Z,95.20
2018-04-26T20:44:44.253Z,95.60
2018-04-26T20:47:13.854Z,95.60
2018-04-26T20:49:44.224Z,96.20
2018-04-26T20:52:13.627Z,96.20
2018-04-26T20:54:47.404Z,96.50
2018-04-26T20:57:16.671Z,96.50
2018-04-26T20:59:46.795Z,96.70
2018-04-26T21:02:16.133Z,96.90
2018-04-26T21:04:45.360Z,96.60
2018-04-26T21:07:14.665Z,96.30
2018-04-26T21:09:43.927Z,96.10
2018-04-26T21:12:13.248Z,95.70
2018-04-26T21:14:42.514Z,95.80
2018-04-26T21:17:12.509Z,95.20
2018-04-26T21:19:41.801Z,95.30
2018-04-26T21:22:11.841Z,95.60
2018-04-26T21:24:41.106Z,95.60
2018-04-26T21:27:10.390Z,95.70
2018-04-26T21:29:39.658Z,95.70
2018-04-26T21:32:08.940Z,95.70
2018-04-26T21:34:38.967Z,95.50
2018-04-26T21:37:08.239Z,95.40
2018-04-26T21:39:38.283Z,95.80
2018-04-26T21:42:07.536Z,95.80
2018-04-26T21:44:37.593Z,96.00
2018-04-26T21:47:07.652Z,95.50
2018-04-26T21:49:36.247Z,95.50
2018-04-26T21:52:11.085Z,95.70
2018-04-26T21:54:46.712Z,95.30
2018-04-26T21:57:21.553Z,95.30
2018-04-26T21:59:56.476Z,95.10
2018-04-26T22:02:25.085Z,95.30
2018-04-26T22:04:59.073Z,95.70
2018-04-26T22:07:28.445Z,95.70
2018-04-26T22:09:57.715Z,95.90
2018-04-26T22:12:31.307Z,96.50
2018-04-26T22:15:01.335Z,96.50
2018-04-26T22:17:31.385Z,96.40
2018-04-26T22:20:00.650Z,96.40
2018-04-26T22:22:30.683Z,96.20
2018-04-26T22:24:59.920Z,96.20
2018-04-26T22:27:29.169Z,96.10
2018-04-26T22:29:59.173Z,96.00
2018-04-26T22:32:29.211Z,96.70
2018-04-26T22:34:59.244Z,96.40
2018-04-26T22:37:28.724Z,96.50
2018-04-26T22:39:58.742Z,96.80
2018-04-26T22:42:28.000Z,96.80
2018-04-26T22:44:57.284Z,97.10
2018-04-26T22:47:26.535Z,97.60
2018-04-26T22:49:56.562Z,97.30
2018-04-26T22:52:25.835Z,97.30
2018-04-26T22:54:55.147Z,97.20
2018-04-26T22:57:24.427Z,97.40
2018-04-26T22:59:53.685Z,97.50
2018-04-26T23:02:22.918Z,97.40
2018-04-26T23:04:52.183Z,97.40
2018-04-26T23:07:21.448Z,97.30
2018-04-26T23:09:50.704Z,97.60
2018-04-26T23:12:19.951Z,97.70
2018-04-26T23:14:49.201Z,97.60
2018-04-26T23:17:18.471Z,97.60
2018-04-26T23:19:47.741Z,97.70
2018-04-26T23:22:17.750Z,98.10
2018-04-26T23:24:47.765Z,98.10
2018-04-26T23:27:17.806Z,98.00
2018-04-26T23:29:47.832Z,98.40
2018-04-26T23:32:17.092Z,98.40
2018-04-26T23:34:46.338Z,98.20
2018-04-26T23:37:15.600Z,98.40
2018-04-26T23:39:45.617Z,98.60
2018-04-26T23:42:15.669Z,98.50
2018-04-26T23:44:44.910Z,98.50
2018-04-26T23:47:14.160Z,98.60
2018-04-26T23:49:43.422Z,98.70
2018-04-26T23:52:12.679Z,98.70
2018-04-26T23:54:41.924Z,98.60
2018-04-26T23:57:12.692Z,98.80
2018-04-26T23:59:42.707Z,99.10
